createdAt,value
2022-10-29T00:00:43.817Z,21.60
2022-10-29T00:03:48.415Z,22.17
2022-10-29T00:09:58.545Z,22.50
2022-10-29T00:13:02.578Z,19.33
2022-10-29T00:16:19.159Z,20.58
2022-10-29T00:19:21.372Z,19.95
2022-10-29T00:22:24.043Z,20.48
2022-10-29T00:25:26.268Z,20.12
2022-10-29T00:28:29.202Z,19.35
2022-10-29T00:31:31.479Z,18.60
2022-10-29T00:34:34.086Z,18.40
2022-10-29T00:37:36.417Z,19.00
2022-10-29T00:40:38.993Z,16.83
2022-10-29T00:43:45.840Z,17.87
2022-10-29T00:46:52.409Z,18.45
2022-10-29T00:49:59.022Z,17.45
2022-10-29T00:53:02.407Z,17.67
2022-10-29T00:56:05.741Z,19.17
2022-10-29T00:59:09.378Z,17.95
2022-10-29T01:02:12.158Z,18.92
2022-10-29T01:05:19.937Z,18.83
2022-10-29T01:08:22.675Z,18.60
2022-10-29T01:12:04.360Z,19.73
2022-10-29T01:15:17.447Z,19.45
2022-10-29T01:18:24.787Z,21.17
2022-10-29T01:21:34.515Z,22.92
2022-10-29T01:24:49.276Z,20.85
2022-10-29T01:28:12.839Z,23.40
2022-10-29T01:31:15.382Z,23.25
2022-10-29T01:34:25.655Z,21.60
2022-10-29T01:37:50.139Z,21.52
2022-10-29T01:41:04.772Z,22.05
2022-10-29T01:44:30.277Z,22.33
2022-10-29T01:47:40.699Z,21.85
2022-10-29T01:50:48.000Z,21.25
2022-10-29T01:53:51.575Z,23.70
2022-10-29T01:56:58.645Z,22.85
2022-10-29T02:00:06.071Z,24.02
2022-10-29T02:03:22.026Z,23.77
2022-10-29T02:06:42.209Z,25.40
2022-10-29T02:09:56.470Z,23.67
2022-10-29T02:12:59.742Z,23.77
2022-10-29T02:16:06.763Z,25.37
2022-10-29T02:19:09.356Z,25.02
2022-10-29T02:22:11.556Z,23.87
2022-10-29T02:25:14.083Z,23.40
2022-10-29T02:28:16.395Z,24.10
2022-10-29T02:31:18.920Z,23.85
2022-10-29T02:34:21.120Z,22.05
2022-10-29T02:37:23.614Z,22.13
2022-10-29T02:40:25.795Z,23.23
2022-10-29T02:43:28.293Z,21.37
2022-10-29T02:46:30.627Z,23.77
2022-10-29T02:49:33.117Z,23.70
2022-10-29T02:52:35.299Z,23.92
2022-10-29T02:55:37.855Z,22.90
2022-10-29T02:58:40.089Z,21.65
2022-10-29T03:01:42.668Z,24.87
2022-10-29T03:04:44.963Z,24.67
2022-10-29T03:07:47.807Z,24.48
2022-10-29T03:10:49.996Z,24.25
2022-10-29T03:13:52.524Z,21.80
2022-10-29T03:16:54.746Z,23.95
2022-10-29T03:19:57.240Z,22.27
2022-10-29T03:22:59.454Z,22.45
2022-10-29T03:26:02.283Z,20.83
2022-10-29T03:29:04.496Z,23.45
2022-10-29T03:32:06.990Z,21.17
2022-10-29T03:35:11.006Z,20.75
2022-10-29T03:38:13.551Z,22.23
2022-10-29T03:41:15.778Z,21.80
2022-10-29T03:44:18.251Z,21.05
2022-10-29T03:47:20.469Z,20.33
2022-10-29T03:50:22.944Z,20.88
2022-10-29T03:53:25.936Z,20.42
2022-10-29T03:56:28.502Z,20.92
2022-10-29T03:59:30.697Z,19.87
2022-10-29T04:02:33.333Z,20.30
2022-10-29T04:05:35.903Z,18.15
2022-10-29T04:08:38.655Z,18.37
2022-10-29T04:11:41.136Z,21.50
2022-10-29T04:14:45.717Z,19.10
2022-10-29T04:17:51.145Z,18.80
2022-10-29T04:28:41.395Z,18.55
2022-10-29T04:31:08.349Z,18.98
2022-10-29T04:34:10.576Z,20.55
2022-10-29T04:37:13.092Z,17.37
2022-10-29T04:40:15.486Z,18.23
2022-10-29T04:43:18.367Z,18.37
2022-10-29T04:46:20.599Z,19.17
2022-10-29T04:49:23.238Z,20.00
2022-10-29T04:52:25.775Z,19.48
2022-10-29T04:55:28.983Z,20.55
2022-10-29T04:58:31.241Z,20.08
2022-10-29T05:04:35.966Z,20.05
2022-10-29T05:07:38.468Z,19.02
2022-10-29T05:10:40.729Z,19.58
2022-10-29T05:13:45.172Z,19.75
2022-10-29T05:16:47.698Z,20.02
2022-10-29T05:19:50.241Z,20.55
2022-10-29T05:23:03.993Z,19.48
2022-10-29T05:26:06.528Z,20.05
2022-10-29T05:29:08.720Z,20.65
2022-10-29T05:32:11.225Z,18.42
2022-10-29T05:35:13.556Z,19.55
2022-10-29T05:38:16.822Z,19.55
2022-10-29T05:41:19.082Z,19.85
2022-10-29T05:44:21.589Z,19.58
2022-10-29T05:47:24.069Z,18.67
2022-10-29T05:50:27.218Z,18.70
2022-10-29T05:53:29.463Z,19.17
2022-10-29T05:56:32.017Z,17.75
2022-10-29T05:59:34.223Z,18.08
2022-10-29T06:02:36.754Z,19.17
2022-10-29T06:05:39.306Z,18.70
2022-10-29T06:08:41.614Z,19.17
2022-10-29T06:11:44.086Z,19.20
2022-10-29T06:14:46.312Z,21.45
2022-10-29T06:17:49.159Z,20.42
2022-10-29T06:20:51.397Z,22.45
2022-10-29T06:23:54.222Z,22.83
2022-10-29T06:26:56.423Z,21.67
2022-10-29T06:29:58.969Z,21.83
2022-10-29T06:33:02.320Z,22.02
2022-10-29T06:36:05.382Z,22.37
2022-10-29T06:39:07.681Z,20.25
2022-10-29T06:42:10.200Z,20.37
2022-10-29T06:45:13.126Z,19.42
2022-10-29T06:48:20.663Z,20.33
2022-10-29T06:51:24.301Z,19.83
2022-10-29T06:54:26.848Z,19.77
2022-10-29T06:57:29.871Z,21.65
2022-10-29T07:00:33.753Z,20.77
2022-10-29T07:03:36.073Z,21.50
2022-10-29T07:06:38.589Z,22.87
2022-10-29T07:09:40.860Z,20.15
2022-10-29T07:12:44.498Z,20.75
2022-10-29T07:15:47.185Z,21.92
2022-10-29T07:18:50.042Z,19.62
2022-10-29T07:21:52.296Z,20.35
2022-10-29T07:24:57.207Z,19.75
2022-10-29T07:28:16.250Z,18.67
2022-10-29T07:31:18.934Z,19.37
2022-10-29T07:34:21.142Z,19.08
2022-10-29T07:37:23.855Z,20.27
2022-10-29T07:40:26.214Z,19.20
2022-10-29T07:43:31.001Z,17.98
2022-10-29T07:46:33.331Z,19.50
2022-10-29T07:49:35.958Z,19.05
2022-10-29T07:52:40.072Z,19.35
2022-10-29T07:55:45.216Z,19.70
2022-10-29T07:58:47.692Z,19.50
2022-10-29T08:01:50.362Z,17.30
2022-10-29T08:04:53.012Z,20.98
2022-10-29T08:07:55.962Z,16.37
2022-10-29T08:11:03.341Z,14.27
2022-10-29T08:14:06.432Z,24.50
2022-10-29T08:17:08.969Z,25.33
2022-10-29T08:20:11.862Z,23.62
2022-10-29T08:23:14.836Z,24.93
2022-10-29T08:26:17.138Z,23.42
2022-10-29T08:29:19.907Z,23.80
2022-10-29T08:32:22.190Z,25.20
2022-10-29T08:35:24.731Z,22.08
2022-10-29T08:38:27.028Z,24.10
2022-10-29T08:42:07.189Z,26.45
2022-10-29T08:45:24.325Z,24.25
2022-10-29T08:48:46.586Z,23.27
2022-10-29T08:51:57.807Z,23.73
2022-10-29T08:55:19.802Z,22.42
2022-10-29T08:58:21.937Z,17.83
2022-10-29T09:01:24.931Z,21.30
2022-10-29T09:04:28.963Z,20.60
2022-10-29T09:07:59.696Z,20.95
2022-10-29T09:11:40.910Z,19.83
2022-10-29T09:14:52.639Z,20.20
2022-10-29T09:18:03.576Z,20.05
2022-10-29T09:21:27.223Z,22.90
2022-10-29T09:24:52.690Z,19.00
2022-10-29T09:28:22.092Z,20.75
2022-10-29T09:31:40.785Z,23.00
2022-10-29T09:34:47.449Z,21.60
2022-10-29T09:37:55.054Z,21.50
2022-10-29T09:41:00.031Z,20.70
2022-10-29T09:44:16.895Z,20.80
2022-10-29T09:47:41.235Z,20.20
2022-10-29T09:51:08.313Z,23.30
2022-10-29T09:54:11.677Z,24.25
2022-10-29T09:57:36.430Z,23.97
2022-10-29T10:00:38.928Z,24.40
2022-10-29T10:03:48.918Z,24.77
2022-10-29T10:07:19.179Z,23.38
2022-10-29T10:10:23.621Z,24.27
2022-10-29T10:13:32.019Z,22.05
2022-10-29T10:16:34.676Z,22.60
2022-10-29T10:19:43.528Z,23.65
2022-10-29T10:22:47.419Z,23.67
2022-10-29T10:25:52.801Z,23.67
2022-10-29T10:29:19.197Z,22.92
2022-10-29T10:32:25.758Z,22.75
2022-10-29T10:35:31.964Z,21.87
2022-10-29T10:38:46.795Z,20.80
2022-10-29T10:41:50.919Z,21.55
2022-10-29T10:44:58.014Z,23.23
2022-10-29T10:48:01.580Z,24.12
2022-10-29T10:51:26.225Z,24.02
2022-10-29T10:54:37.326Z,23.50
2022-10-29T10:57:50.059Z,24.50
2022-10-29T11:01:07.132Z,24.77
2022-10-29T11:04:27.969Z,23.77
2022-10-29T11:07:34.429Z,22.08
2022-10-29T11:10:50.143Z,26.20
2022-10-29T11:13:55.052Z,25.90
2022-10-29T11:17:01.347Z,24.95
2022-10-29T11:20:27.653Z,26.80
2022-10-29T11:24:05.179Z,26.20
2022-10-29T11:27:16.280Z,25.37
2022-10-29T11:30:19.930Z,24.42
2022-10-29T11:36:38.980Z,27.13
2022-10-29T11:39:52.157Z,23.87
2022-10-29T11:42:54.582Z,24.25
2022-10-29T11:46:22.152Z,24.87
2022-10-29T11:50:22.163Z,23.20
2022-10-29T11:53:49.933Z,22.10
2022-10-29T11:57:14.318Z,21.33
2022-10-29T12:00:20.322Z,21.87
2022-10-29T12:03:44.154Z,19.55
2022-10-29T12:07:27.609Z,23.07
2022-10-29T12:10:45.722Z,22.45
2022-10-29T12:14:04.110Z,20.35
2022-10-29T12:17:32.852Z,20.83
2022-10-29T12:20:50.195Z,22.50
2022-10-29T12:24:05.959Z,21.55
2022-10-29T12:27:15.271Z,22.40
2022-10-29T12:30:19.328Z,21.17
2022-10-29T12:33:27.531Z,21.35
2022-10-29T12:36:35.586Z,21.10
2022-10-29T12:39:44.795Z,16.48
2022-10-29T12:42:49.567Z,19.25
2022-10-29T12:46:21.088Z,20.77
2022-10-29T12:49:42.638Z,16.10
2022-10-29T12:52:47.695Z,22.50
2022-10-29T12:55:51.812Z,21.62
2022-10-29T12:58:59.752Z,21.65
2022-10-29T13:02:19.560Z,19.12
2022-10-29T13:05:24.584Z,22.45
2022-10-29T13:08:34.550Z,22.17
2022-10-29T13:11:51.482Z,20.55
2022-10-29T13:15:02.190Z,21.90
2022-10-29T13:18:21.040Z,18.95
2022-10-29T13:21:57.228Z,12.80
2022-10-29T13:25:33.440Z,18.67
2022-10-29T13:28:35.911Z,22.52
2022-10-29T13:31:45.704Z,24.98
2022-10-29T13:34:51.856Z,23.12
2022-10-29T13:38:16.363Z,23.80
2022-10-29T13:41:40.301Z,23.50
2022-10-29T13:44:43.239Z,20.10
2022-10-29T13:47:46.481Z,18.20
2022-10-29T13:50:54.345Z,22.33
2022-10-29T13:54:06.147Z,23.80
2022-10-29T13:57:26.193Z,21.40
2022-10-29T14:00:32.546Z,22.98
2022-10-29T14:03:35.157Z,21.83
2022-10-29T14:06:40.033Z,21.80
2022-10-29T14:09:46.955Z,20.10
2022-10-29T14:12:55.745Z,19.95
2022-10-29T14:16:09.613Z,19.25
2022-10-29T14:19:20.954Z,19.30
2022-10-29T14:22:23.404Z,19.70
2022-10-29T14:25:35.866Z,20.30
2022-10-29T14:28:38.374Z,19.25
2022-10-29T14:31:40.636Z,21.87
2022-10-29T14:34:45.314Z,20.67
2022-10-29T14:37:49.270Z,20.23
2022-10-29T14:40:51.984Z,20.58
2022-10-29T14:44:03.290Z,20.23
2022-10-29T14:47:19.647Z,21.00
2022-10-29T14:50:25.990Z,19.12
2022-10-29T14:53:35.220Z,18.67
2022-10-29T14:56:41.900Z,21.50
2022-10-29T14:59:49.520Z,19.05
2022-10-29T15:02:54.565Z,20.08
2022-10-29T15:06:18.010Z,19.27
2022-10-29T15:09:27.999Z,19.08
2022-10-29T15:12:39.038Z,20.02
2022-10-29T15:15:53.552Z,19.65
2022-10-29T15:18:57.922Z,14.75
2022-10-29T15:22:00.309Z,18.05
2022-10-29T15:25:08.371Z,19.85
2022-10-29T15:28:14.814Z,18.83
2022-10-29T15:31:29.533Z,19.58
2022-10-29T15:34:34.704Z,19.58
2022-10-29T15:37:44.041Z,19.02
2022-10-29T15:41:14.102Z,19.85
2022-10-29T15:44:39.746Z,11.23
2022-10-29T15:47:44.627Z,18.37
2022-10-29T15:50:47.302Z,18.05
2022-10-29T15:53:49.922Z,19.25
2022-10-29T15:56:52.786Z,19.02
2022-10-29T15:59:57.379Z,18.35
2022-10-29T16:03:17.412Z,18.55
2022-10-29T16:06:20.247Z,17.98
2022-10-29T16:09:22.593Z,18.90
2022-10-29T16:12:26.009Z,18.08
2022-10-29T16:15:28.406Z,17.87
2022-10-29T16:18:30.942Z,19.87
2022-10-29T16:21:33.386Z,19.02
2022-10-29T16:24:35.968Z,18.87
2022-10-29T16:27:38.285Z,18.02
2022-10-29T16:30:41.056Z,18.80
2022-10-29T16:33:43.346Z,18.98
2022-10-29T16:36:46.537Z,16.98
2022-10-29T16:39:48.774Z,19.17
2022-10-29T16:42:59.453Z,18.67
2022-10-29T16:46:05.268Z,19.27
2022-10-29T16:49:08.220Z,19.77
2022-10-29T16:52:15.130Z,18.48
2022-10-29T16:55:21.402Z,19.15
2022-10-29T16:58:23.855Z,17.40
2022-10-29T17:01:26.557Z,20.85
2022-10-29T17:04:29.051Z,19.35
2022-10-29T17:07:31.605Z,18.90
2022-10-29T17:10:34.859Z,18.80
2022-10-29T17:13:38.172Z,19.85
2022-10-29T17:16:40.515Z,19.37
2022-10-29T17:19:43.068Z,17.98
2022-10-29T17:22:45.489Z,18.52
2022-10-29T17:25:51.644Z,18.20
2022-10-29T17:28:53.866Z,18.15
2022-10-29T17:31:56.524Z,17.65
2022-10-29T17:34:59.883Z,17.55
2022-10-29T17:38:02.571Z,18.87
2022-10-29T17:41:05.105Z,20.27
2022-10-29T17:44:07.597Z,20.25
2022-10-29T17:47:11.172Z,22.30
2022-10-29T17:50:13.777Z,22.08
2022-10-29T17:53:16.063Z,25.20
2022-10-29T17:56:18.928Z,26.98
2022-10-29T17:59:21.331Z,24.08
2022-10-29T18:02:24.066Z,23.98
2022-10-29T18:05:26.797Z,22.10
2022-10-29T18:08:30.179Z,21.67
2022-10-29T18:11:33.110Z,24.17
2022-10-29T18:14:35.359Z,25.12
2022-10-29T18:17:37.967Z,24.80
2022-10-29T18:20:40.225Z,25.55
2022-10-29T18:23:49.509Z,26.12
2022-10-29T18:26:52.177Z,26.67
2022-10-29T18:29:54.870Z,25.95
2022-10-29T18:32:57.452Z,25.62
2022-10-29T18:36:00.217Z,28.30
2022-10-29T18:39:06.604Z,25.83
2022-10-29T18:42:09.897Z,27.08
2022-10-29T18:45:12.205Z,27.50
2022-10-29T18:48:14.854Z,27.65
2022-10-29T18:51:28.626Z,28.75
2022-10-29T18:54:31.357Z,29.42
2022-10-29T18:57:34.713Z,29.50
2022-10-29T19:00:41.090Z,29.48
2022-10-29T19:03:51.421Z,29.00
2022-10-29T19:06:57.014Z,29.05
2022-10-29T19:09:59.316Z,29.63
2022-10-29T19:13:01.828Z,30.52
2022-10-29T19:16:12.588Z,29.77
2022-10-29T19:19:17.227Z,26.90
2022-10-29T19:22:22.233Z,29.55
2022-10-29T19:25:25.146Z,28.95
2022-10-29T19:28:29.902Z,29.05
2022-10-29T19:31:38.471Z,29.95
2022-10-29T19:34:48.168Z,29.23
2022-10-29T19:37:58.515Z,28.98
2022-10-29T19:41:03.394Z,28.52
2022-10-29T19:44:06.803Z,29.35
2022-10-29T19:47:11.711Z,30.90
2022-10-29T19:50:16.111Z,30.55
2022-10-29T19:53:18.447Z,30.48
2022-10-29T19:56:23.643Z,30.25
2022-10-29T19:59:31.701Z,29.48
2022-10-29T20:02:39.575Z,28.77
2022-10-29T20:05:44.176Z,29.05
2022-10-29T20:08:47.024Z,28.83
2022-10-29T20:11:49.660Z,28.45
2022-10-29T20:14:51.987Z,28.45
2022-10-29T20:17:55.187Z,29.10
2022-10-29T20:20:57.877Z,33.15
2022-10-29T20:24:01.683Z,33.55
2022-10-29T20:27:04.200Z,31.80
2022-10-29T20:30:07.376Z,34.13
2022-10-29T20:33:10.203Z,33.10
2022-10-29T20:36:12.835Z,33.03
2022-10-29T20:39:15.681Z,31.23
2022-10-29T20:42:21.411Z,32.50
2022-10-29T20:45:28.099Z,32.78
2022-10-29T20:51:32.773Z,31.98
2022-10-29T20:54:36.319Z,31.60
2022-10-29T20:57:38.883Z,33.47
2022-10-29T21:00:41.658Z,31.55
2022-10-29T21:03:44.219Z,29.80
2022-10-29T21:06:47.023Z,30.67
2022-10-29T21:09:49.694Z,30.08
2022-10-29T21:12:52.309Z,30.27
2022-10-29T21:15:54.725Z,28.75
2022-10-29T21:19:02.280Z,27.75
2022-10-29T21:22:04.602Z,27.65
2022-10-29T21:25:07.735Z,26.73
2022-10-29T21:28:11.208Z,27.70
2022-10-29T21:31:13.852Z,27.62
2022-10-29T21:34:16.214Z,27.35
2022-10-29T21:37:18.863Z,27.85
2022-10-29T21:40:21.282Z,28.17
2022-10-29T21:43:26.210Z,27.05
2022-10-29T21:46:31.879Z,28.45
2022-10-29T21:49:34.725Z,30.17
2022-10-29T21:52:37.067Z,30.08
2022-10-29T21:55:39.931Z,28.60
2022-10-29T21:58:42.752Z,25.85
2022-10-29T22:01:50.324Z,24.90
2022-10-29T22:04:53.076Z,24.15
2022-10-29T22:07:56.532Z,40.72
2022-10-29T22:14:03.239Z,21.83
2022-10-29T22:17:05.826Z,21.80
2022-10-29T22:20:08.607Z,21.85
2022-10-29T22:23:11.139Z,21.73
2022-10-29T22:26:15.336Z,22.13
2022-10-29T22:29:17.918Z,22.23
2022-10-29T22:32:20.336Z,22.17
2022-10-29T22:35:22.896Z,23.00
2022-10-29T22:38:25.159Z,22.58
2022-10-29T22:41:29.378Z,22.73
2022-10-29T22:44:31.756Z,22.50
2022-10-29T22:47:34.292Z,22.48
2022-10-29T22:50:36.508Z,22.15
2022-10-29T22:53:39.058Z,22.58
2022-10-29T22:56:41.326Z,24.00
2022-10-29T22:59:43.962Z,23.42
2022-10-29T23:03:12.727Z,21.87
2022-10-29T23:06:18.465Z,22.50
2022-10-29T23:09:20.702Z,23.15
2022-10-29T23:12:23.232Z,23.52
2022-10-29T23:15:28.511Z,23.45
2022-10-29T23:18:31.074Z,26.02
2022-10-29T23:21:34.640Z,25.12
2022-10-29T23:24:37.116Z,26.23
2022-10-29T23:27:39.364Z,26.10
2022-10-29T23:30:41.866Z,26.02
2022-10-29T23:33:49.167Z,25.92
2022-10-29T23:39:54.882Z,27.00
2022-10-29T23:42:57.432Z,27.30
2022-10-29T23:45:59.920Z,27.85
2022-10-29T23:49:02.460Z,26.10
2022-10-29T23:52:07.739Z,25.58
2022-10-29T23:55:10.270Z,27.20
2022-10-29T23:58:13.747Z,27.00
